Latest Weather Observations for Outer Harbor (Black Pole)

IDS60801

Issued at 8:31 am CDT Tuesday 23 December 2014 (issued every 30 minutes, with the page automatically refreshed every 10 minutes)

About weather observations | Map of weather stations | Latest weather observations for SA | Other Formats
Station Details ID: 023052 Name: BLACK POLE Lat: -34.73 Lon: 138.47 Height: 8.0 m
Data from the previous 72 hours. | See also: Recent months for locations in South Australia
Date/Time
CDT
Temp
°C
App
Temp
°C
Dew
Point
Rel
Hum
%
Delta-T
°C
Wind Press
QNH
hPa
Press
MSL
hPa
Rain
since 9 am
mm
Dir
 
Spd
km/h
Gust
km/h
Spd
kts
Gust
kts
23/08:30am - - - - - SW 32 37 17 20 - - -
23/08:00am - - - - - SW 32 39 17 21 - - -
23/07:30am - - - - - SSW 28 33 15 18 - - -
23/07:00am - - - - - SSW 28 37 15 20 - - -
23/06:30am - - - - - SSW 28 32 15 17 - - -
23/06:00am - - - - - SW 30 35 16 19 - - -
23/05:30am - - - - - SSW 30 35 16 19 - - -
23/05:00am - - - - - SSW 30 35 16 19 - - -
23/04:30am - - - - - SW 33 39 18 21 - - -
23/04:00am - - - - - SW 33 41 18 22 - - -
23/03:30am - - - - - SW 26 30 14 16 - - -
23/03:00am - - - - - SW 26 32 14 17 - - -
23/02:30am - - - - - SW 17 20 9 11 - - -
23/02:00am - - - - - SW 24 26 13 14 - - -
23/01:30am - - - - - SW 22 24 12 13 - - -
23/01:00am - - - - - SW 19 22 10 12 - - -
23/12:30am - - - - - SSW 19 20 10 11 - - -
23/12:00am - - - - - SSW 19 22 10 12 - - -
 
Date/Time
CDT
Temp
°C
App
Temp
°C
Dew
Point
Rel
Hum
%
Delta-T
°C
Wind Press
QNH
hPa
Press
MSL
hPa
Rain
since 9 am
mm
Dir
 
Spd
km/h
Gust
km/h
Spd
kts
Gust
kts
22/11:30pm - - - - - SW 19 20 10 11 - - -
22/11:00pm - - - - - SSW 19 20 10 11 - - -
22/10:30pm - - - - - SSW 19 24 10 13 - - -
22/10:00pm - - - - - SSW 20 24 11 13 - - -
22/09:30pm - - - - - SW 17 19 9 10 - - -
22/09:00pm - - - - - SW 17 20 9 11 - - -
22/08:30pm - - - - - SW 13 15 7 8 - - -
22/08:00pm - - - - - SSE 4 7 2 4 - - -
22/07:30pm - - - - - SE 9 13 5 7 - - -
22/07:00pm - - - - - ESE 19 22 10 12 - - -
22/06:30pm - - - - - SE 9 13 5 7 - - -
22/06:00pm - - - - - SW 19 24 10 13 - - -
22/05:30pm - - - - - WSW 26 30 14 16 - - -
22/05:00pm - - - - - WSW 19 20 10 11 - - -
22/04:30pm - - - - - WSW 17 19 9 10 - - -
22/04:00pm - - - - - WSW 13 19 7 10 - - -
22/03:30pm - - - - - W 13 13 7 7 - - -
22/03:00pm - - - - - SSW 13 17 7 9 - - -
22/02:30pm - - - - - SE 19 20 10 11 - - -
22/02:00pm - - - - - SE 11 15 6 8 - - -
22/01:30pm - - - - - S 7 11 4 6 - - -
22/01:00pm - - - - - SW 15 19 8 10 - - -
22/12:30pm - - - - - W 15 20 8 11 - - -
22/12:00pm - - - - - WSW 9 13 5 7 - - -
22/11:30am - - - - - SW 15 17 8 9 - - -
22/11:00am - - - - - WSW 20 24 11 13 - - -
22/10:30am - - - - - SW 20 28 11 15 - - -
22/10:00am - - - - - SSW 4 6 2 3 - - -
22/09:30am - - - - - NW 6 9 3 5 - - -
22/09:00am - - - - - NW 19 28 10 15 - - -
22/08:30am - - - - - NNW 6 15 3 8 - - -
22/08:00am - - - - - ENE 4 11 2 6 - - -
22/07:30am - - - - - NW 4 6 2 3 - - -
22/07:00am - - - - - WNW 6 9 3 5 - - -
22/06:30am - - - - - NW 13 15 7 8 - - -
22/06:00am - - - - - NW 20 24 11 13 - - -
22/05:30am - - - - - N 6 7 3 4 - - -
22/05:00am - - - - - NNE 9 11 5 6 - - -
22/04:30am - - - - - ENE 17 20 9 11 - - -
22/04:00am - - - - - ENE 17 19 9 10 - - -
22/03:30am - - - - - NE 15 19 8 10 - - -
22/03:00am - - - - - SE 7 15 4 8 - - -
22/02:30am - - - - - SSW 13 15 7 8 - - -
22/02:00am - - - - - SW 13 19 7 10 - - -
22/01:30am - - - - - WSW 20 28 11 15 - - -
22/01:00am - - - - - W 9 13 5 7 - - -
22/12:30am - - - - - SW 9 24 5 13 - - -
22/12:00am - - - - - SSE 17 28 9 15 - - -
 
Date/Time
CDT
Temp
°C
App
Temp
°C
Dew
Point
Rel
Hum
%
Delta-T
°C
Wind Press
QNH
hPa
Press
MSL
hPa
Rain
since 9 am
mm
Dir
 
Spd
km/h
Gust
km/h
Spd
kts
Gust
kts
21/11:30pm - - - - - S 28 32 15 17 - - -
21/11:00pm - - - - - SSW 30 37 16 20 - - -
21/10:30pm - - - - - SW 28 35 15 19 - - -
21/10:00pm - - - - - W 26 33 14 18 - - -
21/09:35pm - - - - - NW 15 39 8 21 - - -
21/09:30pm - - - - - NW 17 33 9 18 - - -
21/09:19pm - - - - - N 11 37 6 20 - - -
21/09:00pm - - - - - ENE 7 17 4 9 - - -
21/08:30pm - - - - - ESE 17 22 9 12 - - -
21/08:00pm - - - - - ESE 22 28 12 15 - - -
21/07:30pm - - - - - SE 19 19 10 10 - - -
21/07:00pm - - - - - SSE 13 15 7 8 - - -
21/06:30pm - - - - - S 19 22 10 12 - - -
21/06:00pm - - - - - SSW 20 22 11 12 - - -
21/05:30pm - - - - - SSW 20 22 11 12 - - -
21/05:00pm - - - - - SSW 20 26 11 14 - - -
21/04:30pm - - - - - SSW 24 26 13 14 - - -
21/04:00pm - - - - - S 24 28 13 15 - - -
21/03:30pm - - - - - SSW 24 30 13 16 - - -
21/03:00pm - - - - - SSW 24 28 13 15 - - -
21/02:30pm - - - - - SSW 30 35 16 19 - - -
21/02:00pm - - - - - SSW 28 33 15 18 - - -
21/01:30pm - - - - - WNW 19 20 10 11 - - -
21/01:00pm - - - - - WNW 20 22 11 12 - - -
21/12:30pm - - - - - WNW 19 20 10 11 - - -
21/12:00pm - - - - - WNW 15 19 8 10 - - -
21/11:30am - - - - - W 11 13 6 7 - - -
21/11:00am - - - - - WSW 6 7 3 4 - - -
21/10:30am - - - - - W 9 11 5 6 - - -
21/10:00am - - - - - WNW 6 7 3 4 - - -
21/09:30am - - - - - WNW 7 13 4 7 - - -
21/09:00am - - - - - NNE 9 13 5 7 - - -
21/08:30am - - - - - NE 15 17 8 9 - - -
21/08:00am - - - - - NE 15 19 8 10 - - -
21/07:30am - - - - - ENE 17 20 9 11 - - -
21/07:00am - - - - - ENE 15 19 8 10 - - -
21/06:30am - - - - - ENE 11 13 6 7 - - -
21/06:00am - - - - - NE 11 13 6 7 - - -
21/05:30am - - - - - NE 7 11 4 6 - - -
21/05:00am - - - - - NNE 6 7 3 4 - - -
21/04:30am - - - - - N 6 7 3 4 - - -
21/04:00am - - - - - NNW 6 7 3 4 - - -
21/03:30am - - - - - N 7 9 4 5 - - -
21/03:00am - - - - - N 7 9 4 5 - - -
21/02:30am - - - - - NNE 7 9 4 5 - - -
21/02:00am - - - - - N 7 9 4 5 - - -
21/01:30am - - - - - NNE 4 6 2 3 - - -
21/01:00am - - - - - ENE 6 6 3 3 - - -
21/12:30am - - - - - ENE 11 13 6 7 - - -
21/12:00am - - - - - E 11 13 6 7 - - -
 
Date/Time
CDT
Temp
°C
App
Temp
°C
Dew
Point
Rel
Hum
%
Delta-T
°C
Wind Press
QNH
hPa
Press
MSL
hPa
Rain
since 9 am
mm
Dir
 
Spd
km/h
Gust
km/h
Spd
kts
Gust
kts
20/11:30pm - - - - - E 9 13 5 7 - - -
20/11:00pm - - - - - E 15 17 8 9 - - -
20/10:30pm - - - - - ESE 9 13 5 7 - - -
20/10:00pm - - - - - SE 6 7 3 4 - - -
20/09:30pm - - - - - SSW 9 13 5 7 - - -
20/09:00pm - - - - - SW 15 17 8 9 - - -
20/08:30pm - - - - - SW 19 20 10 11 - - -
20/08:00pm - - - - - SSW 22 26 12 14 - - -
20/07:30pm - - - - - SW 24 28 13 15 - - -
20/07:00pm - - - - - SSW 22 24 12 13 - - -
20/06:30pm - - - - - SSW 22 26 12 14 - - -
20/06:00pm - - - - - SSW 22 26 12 14 - - -
20/05:30pm - - - - - SSW 24 26 13 14 - - -
20/05:00pm - - - - - SSW 26 28 14 15 - - -
20/04:30pm - - - - - SSW 24 28 13 15 - - -
20/04:00pm - - - - - SSW 20 22 11 12 - - -
20/03:30pm - - - - - SSW 22 26 12 14 - - -
20/03:00pm - - - - - SW 24 28 13 15 - - -
20/02:30pm - - - - - SW 22 26 12 14 - - -
20/02:00pm - - - - - SW 24 26 13 14 - - -
20/01:30pm - - - - - SSW 26 28 14 15 - - -
20/01:00pm - - - - - SSW 26 30 14 16 - - -
20/12:30pm - - - - - SSW 24 26 13 14 - - -
20/12:00pm - - - - - SSW 22 26 12 14 - - -
20/11:30am - - - - - SSW 20 22 11 12 - - -
20/11:00am - - - - - SSW 15 20 8 11 - - -
20/10:30am - - - - - SSW 7 13 4 7 - - -
20/10:00am - - - - - S 6 9 3 5 - - -
20/09:30am - - - - - SSE 4 6 2 3 - - -
20/09:00am - - - - - E 4 7 2 4 - - -

Other Formats:

Comma delimited format used in spreadsheet applications
http://www.bom.gov.au/fwo/IDS60801/IDS60801.95675.axf

JavaScript Object Notation format (JSON) in row-major order
http://www.bom.gov.au/fwo/IDS60801/IDS60801.95675.json